sensor_id;sensor_type;location;lat;lon;timestamp;P1;durP1;ratioP1;P2;durP2;ratioP2
54557;SDS011;40452;50.080;20.040;2023-05-07T04:39:26;2.00;;;1.10;;
54557;SDS011;40452;50.080;20.040;2023-05-07T04:41:52;2.03;;;1.20;;
54557;SDS011;40452;50.080;20.040;2023-05-07T04:44:17;1.85;;;0.90;;
54557;SDS011;40452;50.080;20.040;2023-05-07T04:46:43;1.77;;;1.30;;
54557;SDS011;40452;50.080;20.040;2023-05-07T04:49:08;4.50;;;1.10;;
54557;SDS011;40452;50.080;20.040;2023-05-07T04:51:35;1.10;;;0.80;;
54557;SDS011;40452;50.080;20.040;2023-05-07T04:54:00;2.28;;;1.00;;
54557;SDS011;40452;50.080;20.040;2023-05-07T04:56:27;1.67;;;1.00;;
54557;SDS011;40452;50.080;20.040;2023-05-07T04:58:54;1.40;;;0.80;;
54557;SDS011;40452;50.080;20.040;2023-05-07T05:01:20;1.92;;;1.10;;
54557;SDS011;40452;50.080;20.040;2023-05-07T05:03:45;1.98;;;0.80;;
54557;SDS011;40452;50.080;20.040;2023-05-07T05:06:11;1.15;;;0.80;;
54557;SDS011;40452;50.080;20.040;2023-05-07T05:08:36;2.33;;;0.80;;
54557;SDS011;40452;50.080;20.040;2023-05-07T05:11:02;2.58;;;0.90;;
54557;SDS011;40452;50.080;20.040;2023-05-07T05:13:27;1.00;;;0.80;;
54557;SDS011;40452;50.080;20.040;2023-05-07T05:15:53;2.67;;;0.68;;
54557;SDS011;40452;50.080;20.040;2023-05-07T05:18:18;1.38;;;0.70;;
54557;SDS011;40452;50.080;20.040;2023-05-07T05:20:45;1.30;;;0.88;;
54557;SDS011;40452;50.080;20.040;2023-05-07T05:23:10;1.00;;;0.80;;
54557;SDS011;40452;50.080;20.040;2023-05-07T05:25:36;0.90;;;0.68;;
54557;SDS011;40452;50.080;20.040;2023-05-07T05:28:02;1.40;;;0.88;;
54557;SDS011;40452;50.080;20.040;2023-05-07T05:30:28;1.08;;;0.70;;
54557;SDS011;40452;50.080;20.040;2023-05-07T05:32:53;1.67;;;0.88;;
54557;SDS011;40452;50.080;20.040;2023-05-07T05:35:18;9.13;;;1.10;;
54557;SDS011;40452;50.080;20.040;2023-05-07T05:37:44;4.45;;;1.00;;
54557;SDS011;40452;50.080;20.040;2023-05-07T05:40:10;2.72;;;0.95;;
54557;SDS011;40452;50.080;20.040;2023-05-07T05:42:35;2.47;;;0.95;;
54557;SDS011;40452;50.080;20.040;2023-05-07T05:45:01;2.72;;;1.10;;
54557;SDS011;40452;50.080;20.040;2023-05-07T05:47:26;3.03;;;1.13;;
54557;SDS011;40452;50.080;20.040;2023-05-07T05:49:52;2.97;;;1.00;;
54557;SDS011;40452;50.080;20.040;2023-05-07T05:52:17;1.75;;;1.00;;
54557;SDS011;40452;50.080;20.040;2023-05-07T05:54:43;2.95;;;1.10;;
54557;SDS011;40452;50.080;20.040;2023-05-07T05:57:08;3.53;;;0.90;;
54557;SDS011;40452;50.080;20.040;2023-05-07T05:59:34;6.07;;;0.80;;
54557;SDS011;40452;50.080;20.040;2023-05-07T06:02:00;2.17;;;0.80;;
54557;SDS011;40452;50.080;20.040;2023-05-07T06:04:25;2.97;;;1.00;;
54557;SDS011;40452;50.080;20.040;2023-05-07T06:06:51;4.28;;;1.60;;
54557;SDS011;40452;50.080;20.040;2023-05-07T06:09:18;1.52;;;0.93;;
54557;SDS011;40452;50.080;20.040;2023-05-07T06:11:43;2.25;;;0.95;;
54557;SDS011;40452;50.080;20.040;2023-05-07T06:14:15;2.20;;;0.80;;
54557;SDS011;40452;50.080;20.040;2023-05-07T06:16:40;4.13;;;1.00;;
54557;SDS011;40452;50.080;20.040;2023-05-07T06:19:09;1.92;;;0.80;;
54557;SDS011;40452;50.080;20.040;2023-05-07T06:21:37;2.42;;;0.98;;
54557;SDS011;40452;50.080;20.040;2023-05-07T06:24:03;5.40;;;1.08;;
54557;SDS011;40452;50.080;20.040;2023-05-07T06:26:29;4.35;;;0.90;;
54557;SDS011;40452;50.080;20.040;2023-05-07T06:28:57;1.35;;;0.77;;
54557;SDS011;40452;50.080;20.040;2023-05-07T06:31:22;5.53;;;1.00;;
54557;SDS011;40452;50.080;20.040;2023-05-07T06:33:48;3.22;;;0.77;;
54557;SDS011;40452;50.080;20.040;2023-05-07T06:36:14;2.63;;;0.80;;
54557;SDS011;40452;50.080;20.040;2023-05-07T06:38:40;1.42;;;1.00;;
54557;SDS011;40452;50.080;20.040;2023-05-07T06:41:05;3.72;;;1.45;;
54557;SDS011;40452;50.080;20.040;2023-05-07T06:43:31;2.70;;;1.15;;
54557;SDS011;40452;50.080;20.040;2023-05-07T06:45:57;2.17;;;1.20;;
54557;SDS011;40452;50.080;20.040;2023-05-07T06:48:23;4.53;;;1.60;;
54557;SDS011;40452;50.080;20.040;2023-05-07T06:50:48;4.43;;;1.40;;
54557;SDS011;40452;50.080;20.040;2023-05-07T06:53:16;3.45;;;1.58;;
54557;SDS011;40452;50.080;20.040;2023-05-07T06:55:45;2.22;;;1.20;;
54557;SDS011;40452;50.080;20.040;2023-05-07T06:58:10;4.10;;;1.30;;
54557;SDS011;40452;50.080;20.040;2023-05-07T07:00:36;2.40;;;1.20;;
54557;SDS011;40452;50.080;20.040;2023-05-07T07:03:01;8.98;;;1.90;;
54557;SDS011;40452;50.080;20.040;2023-05-07T07:05:27;3.10;;;1.50;;
54557;SDS011;40452;50.080;20.040;2023-05-07T07:07:52;4.28;;;1.38;;
54557;SDS011;40452;50.080;20.040;2023-05-07T07:10:18;2.53;;;1.42;;
54557;SDS011;40452;50.080;20.040;2023-05-07T07:12:45;6.53;;;1.40;;
54557;SDS011;40452;50.080;20.040;2023-05-07T07:15:10;2.00;;;1.15;;
54557;SDS011;40452;50.080;20.040;2023-05-07T07:17:36;2.30;;;1.40;;
54557;SDS011;40452;50.080;20.040;2023-05-07T07:20:02;2.45;;;1.33;;
54557;SDS011;40452;50.080;20.040;2023-05-07T07:22:28;2.90;;;1.40;;
54557;SDS011;40452;50.080;20.040;2023-05-07T07:24:53;2.67;;;1.40;;
54557;SDS011;40452;50.080;20.040;2023-05-07T07:27:19;3.25;;;1.67;;
54557;SDS011;40452;50.080;20.040;2023-05-07T07:29:45;3.10;;;1.73;;
54557;SDS011;40452;50.080;20.040;2023-05-07T07:32:10;2.28;;;1.60;;
54557;SDS011;40452;50.080;20.040;2023-05-07T07:34:36;3.28;;;1.50;;
54557;SDS011;40452;50.080;20.040;2023-05-07T07:37:01;3.17;;;1.60;;
54557;SDS011;40452;50.080;20.040;2023-05-07T07:39:31;2.63;;;1.40;;
54557;SDS011;40452;50.080;20.040;2023-05-07T07:41:57;2.25;;;1.50;;
54557;SDS011;40452;50.080;20.040;2023-05-07T07:44:22;2.67;;;1.42;;
54557;SDS011;40452;50.080;20.040;2023-05-07T07:46:48;3.13;;;1.70;;
54557;SDS011;40452;50.080;20.040;2023-05-07T07:49:14;3.10;;;1.83;;
54557;SDS011;40452;50.080;20.040;2023-05-07T07:51:40;2.03;;;1.42;;
54557;SDS011;40452;50.080;20.040;2023-05-07T07:54:05;1.55;;;1.20;;
54557;SDS011;40452;50.080;20.040;2023-05-07T07:56:31;2.78;;;1.52;;
54557;SDS011;40452;50.080;20.040;2023-05-07T07:58:58;2.55;;;1.73;;
54557;SDS011;40452;50.080;20.040;2023-05-07T08:01:24;2.30;;;1.73;;
54557;SDS011;40452;50.080;20.040;2023-05-07T08:03:49;3.08;;;1.85;;
54557;SDS011;40452;50.080;20.040;2023-05-07T08:06:15;4.70;;;1.85;;
54557;SDS011;40452;50.080;20.040;2023-05-07T08:08:40;2.33;;;1.67;;
54557;SDS011;40452;50.080;20.040;2023-05-07T08:11:06;2.72;;;1.70;;
54557;SDS011;40452;50.080;20.040;2023-05-07T08:13:32;2.47;;;1.58;;
54557;SDS011;40452;50.080;20.040;2023-05-07T08:15:57;2.85;;;1.67;;
54557;SDS011;40452;50.080;20.040;2023-05-07T08:18:23;2.10;;;1.60;;
54557;SDS011;40452;50.080;20.040;2023-05-07T08:20:50;2.92;;;1.90;;
54557;SDS011;40452;50.080;20.040;2023-05-07T08:23:16;3.53;;;1.50;;
54557;SDS011;40452;50.080;20.040;2023-05-07T08:25:41;7.65;;;1.65;;
54557;SDS011;40452;50.080;20.040;2023-05-07T08:28:07;3.70;;;1.58;;
54557;SDS011;40452;50.080;20.040;2023-05-07T08:30:33;2.30;;;1.50;;
54557;SDS011;40452;50.080;20.040;2023-05-07T08:32:59;2.63;;;1.70;;
54557;SDS011;40452;50.080;20.040;2023-05-07T08:35:25;2.85;;;1.40;;
54557;SDS011;40452;50.080;20.040;2023-05-07T08:37:52;2.47;;;1.40;;
54557;SDS011;40452;50.080;20.040;2023-05-07T08:40:17;3.45;;;1.70;;
54557;SDS011;40452;50.080;20.040;2023-05-07T08:42:43;2.13;;;1.60;;
54557;SDS011;40452;50.080;20.040;2023-05-07T08:45:10;2.60;;;1.42;;
54557;SDS011;40452;50.080;20.040;2023-05-07T08:47:40;3.85;;;1.40;;
54557;SDS011;40452;50.080;20.040;2023-05-07T08:50:11;5.53;;;1.40;;
54557;SDS011;40452;50.080;20.040;2023-05-07T08:52:38;3.80;;;1.67;;
54557;SDS011;40452;50.080;20.040;2023-05-07T08:55:05;2.53;;;1.40;;
54557;SDS011;40452;50.080;20.040;2023-05-07T08:57:32;2.30;;;1.48;;
54557;SDS011;40452;50.080;20.040;2023-05-07T08:59:57;2.03;;;1.40;;
54557;SDS011;40452;50.080;20.040;2023-05-07T09:02:23;3.28;;;1.45;;
54557;SDS011;40452;50.080;20.040;2023-05-07T09:04:48;2.08;;;1.40;;
54557;SDS011;40452;50.080;20.040;2023-05-07T09:07:17;2.80;;;1.33;;
54557;SDS011;40452;50.080;20.040;2023-05-07T09:09:44;3.13;;;1.40;;
54557;SDS011;40452;50.080;20.040;2023-05-07T09:12:11;3.45;;;1.60;;
54557;SDS011;40452;50.080;20.040;2023-05-07T09:14:36;4.25;;;1.20;;
54557;SDS011;40452;50.080;20.040;2023-05-07T09:17:02;4.28;;;1.20;;
54557;SDS011;40452;50.080;20.040;2023-05-07T09:19:28;2.55;;;1.52;;
54557;SDS011;40452;50.080;20.040;2023-05-07T09:22:03;1.70;;;1.30;;
54557;SDS011;40452;50.080;20.040;2023-05-07T09:24:30;2.20;;;1.33;;
54557;SDS011;40452;50.080;20.040;2023-05-07T09:26:59;1.77;;;1.10;;
54557;SDS011;40452;50.080;20.040;2023-05-07T09:29:26;1.83;;;1.20;;
54557;SDS011;40452;50.080;20.040;2023-05-07T09:31:53;1.80;;;1.20;;
54557;SDS011;40452;50.080;20.040;2023-05-07T09:34:19;1.58;;;1.27;;
54557;SDS011;40452;50.080;20.040;2023-05-07T09:36:45;1.25;;;0.95;;
54557;SDS011;40452;50.080;20.040;2023-05-07T09:39:11;5.60;;;2.88;;
54557;SDS011;40452;50.080;20.040;2023-05-07T09:41:44;5.68;;;3.05;;
54557;SDS011;40452;50.080;20.040;2023-05-07T09:44:14;11.57;;;4.57;;
54557;SDS011;40452;50.080;20.040;2023-05-07T09:46:41;11.27;;;6.30;;
54557;SDS011;40452;50.080;20.040;2023-05-07T09:49:12;18.08;;;6.47;;
54557;SDS011;40452;50.080;20.040;2023-05-07T09:51:45;13.25;;;6.13;;
54557;SDS011;40452;50.080;20.040;2023-05-07T09:54:14;11.13;;;6.60;;
54557;SDS011;40452;50.080;20.040;2023-05-07T09:56:40;12.38;;;6.03;;
54557;SDS011;40452;50.080;20.040;2023-05-07T09:59:07;12.05;;;6.88;;
54557;SDS011;40452;50.080;20.040;2023-05-07T10:01:33;14.60;;;6.70;;
54557;SDS011;40452;50.080;20.040;2023-05-07T10:04:02;8.50;;;5.68;;
54557;SDS011;40452;50.080;20.040;2023-05-07T10:06:33;12.88;;;6.65;;
54557;SDS011;40452;50.080;20.040;2023-05-07T10:08:59;10.48;;;6.10;;
54557;SDS011;40452;50.080;20.040;2023-05-07T10:11:30;12.60;;;6.10;;
54557;SDS011;40452;50.080;20.040;2023-05-07T10:14:00;11.38;;;6.45;;
54557;SDS011;40452;50.080;20.040;2023-05-07T10:16:36;10.23;;;6.10;;
54557;SDS011;40452;50.080;20.040;2023-05-07T10:19:05;10.85;;;5.63;;
54557;SDS011;40452;50.080;20.040;2023-05-07T10:21:34;10.10;;;6.55;;
54557;SDS011;40452;50.080;20.040;2023-05-07T10:26:35;10.40;;;6.00;;
54557;SDS011;40452;50.080;20.040;2023-05-07T10:29:05;9.20;;;5.85;;
54557;SDS011;40452;50.080;20.040;2023-05-07T10:34:19;9.65;;;5.95;;
54557;SDS011;40452;50.080;20.040;2023-05-07T10:36:49;9.18;;;5.82;;
54557;SDS011;40452;50.080;20.040;2023-05-07T10:39:16;8.52;;;5.40;;
54557;SDS011;40452;50.080;20.040;2023-05-07T10:41:42;9.30;;;6.18;;
54557;SDS011;40452;50.080;20.040;2023-05-07T10:44:11;9.15;;;5.93;;
54557;SDS011;40452;50.080;20.040;2023-05-07T10:46:36;10.43;;;5.88;;
54557;SDS011;40452;50.080;20.040;2023-05-07T10:51:31;8.65;;;5.55;;
54557;SDS011;40452;50.080;20.040;2023-05-07T10:56:39;9.70;;;6.45;;
54557;SDS011;40452;50.080;20.040;2023-05-07T11:02:06;9.18;;;6.07;;
54557;SDS011;40452;50.080;20.040;2023-05-07T11:04:34;10.32;;;6.90;;
54557;SDS011;40452;50.080;20.040;2023-05-07T11:15:10;11.38;;;6.70;;
54557;SDS011;40452;50.080;20.040;2023-05-07T11:18:20;13.40;;;6.75;;
54557;SDS011;40452;50.080;20.040;2023-05-07T11:26:08;11.73;;;6.40;;
54557;SDS011;40452;50.080;20.040;2023-05-07T11:28:38;9.75;;;6.50;;
54557;SDS011;40452;50.080;20.040;2023-05-07T11:31:05;11.07;;;7.00;;
54557;SDS011;40452;50.080;20.040;2023-05-07T11:33:31;10.90;;;6.70;;
54557;SDS011;40452;50.080;20.040;2023-05-07T11:35:57;11.18;;;6.45;;
54557;SDS011;40452;50.080;20.040;2023-05-07T11:38:24;11.95;;;6.60;;
54557;SDS011;40452;50.080;20.040;2023-05-07T11:40:50;10.02;;;6.30;;
54557;SDS011;40452;50.080;20.040;2023-05-07T11:43:20;11.75;;;6.50;;
54557;SDS011;40452;50.080;20.040;2023-05-07T11:45:46;10.45;;;6.72;;
54557;SDS011;40452;50.080;20.040;2023-05-07T11:48:12;8.25;;;6.00;;
54557;SDS011;40452;50.080;20.040;2023-05-07T11:50:50;9.05;;;5.90;;
54557;SDS011;40452;50.080;20.040;2023-05-07T11:53:20;8.40;;;5.80;;
54557;SDS011;40452;50.080;20.040;2023-05-07T11:55:53;8.53;;;5.63;;
54557;SDS011;40452;50.080;20.040;2023-05-07T11:58:20;13.60;;;5.70;;
54557;SDS011;40452;50.080;20.040;2023-05-07T12:00:50;25.10;;;5.35;;
54557;SDS011;40452;50.080;20.040;2023-05-07T12:03:19;10.25;;;5.75;;
54557;SDS011;40452;50.080;20.040;2023-05-07T12:05:45;10.60;;;5.45;;
54557;SDS011;40452;50.080;20.040;2023-05-07T12:08:21;9.05;;;5.53;;
54557;SDS011;40452;50.080;20.040;2023-05-07T12:10:47;8.00;;;5.40;;
54557;SDS011;40452;50.080;20.040;2023-05-07T12:13:17;11.32;;;5.38;;
54557;SDS011;40452;50.080;20.040;2023-05-07T12:15:44;10.40;;;5.30;;
54557;SDS011;40452;50.080;20.040;2023-05-07T12:18:18;7.97;;;5.07;;
54557;SDS011;40452;50.080;20.040;2023-05-07T12:20:50;8.82;;;4.47;;
54557;SDS011;40452;50.080;20.040;2023-05-07T12:23:16;6.80;;;4.85;;
54557;SDS011;40452;50.080;20.040;2023-05-07T12:25:42;7.63;;;4.32;;
54557;SDS011;40452;50.080;20.040;2023-05-07T12:28:15;6.50;;;4.60;;
54557;SDS011;40452;50.080;20.040;2023-05-07T12:30:42;7.45;;;4.65;;
54557;SDS011;40452;50.080;20.040;2023-05-07T12:33:09;6.72;;;4.65;;
54557;SDS011;40452;50.080;20.040;2023-05-07T12:35:41;8.50;;;4.80;;
54557;SDS011;40452;50.080;20.040;2023-05-07T12:38:14;8.65;;;4.57;;
54557;SDS011;40452;50.080;20.040;2023-05-07T12:40:43;7.88;;;4.93;;
54557;SDS011;40452;50.080;20.040;2023-05-07T12:43:25;6.90;;;4.55;;
54557;SDS011;40452;50.080;20.040;2023-05-07T12:45:55;5.82;;;3.90;;
54557;SDS011;40452;50.080;20.040;2023-05-07T12:48:22;7.15;;;4.50;;
54557;SDS011;40452;50.080;20.040;2023-05-07T12:50:49;9.85;;;4.63;;
54557;SDS011;40452;50.080;20.040;2023-05-07T12:53:22;8.52;;;4.53;;
54557;SDS011;40452;50.080;20.040;2023-05-07T12:55:50;7.88;;;4.53;;
54557;SDS011;40452;50.080;20.040;2023-05-07T12:58:18;6.30;;;4.20;;
54557;SDS011;40452;50.080;20.040;2023-05-07T13:00:44;7.80;;;4.78;;
54557;SDS011;40452;50.080;20.040;2023-05-07T13:03:12;7.13;;;4.47;;
54557;SDS011;40452;50.080;20.040;2023-05-07T13:05:47;9.82;;;4.57;;
54557;SDS011;40452;50.080;20.040;2023-05-07T13:08:12;6.88;;;4.07;;
54557;SDS011;40452;50.080;20.040;2023-05-07T13:10:48;7.75;;;4.60;;
54557;SDS011;40452;50.080;20.040;2023-05-07T13:13:14;9.20;;;4.28;;
54557;SDS011;40452;50.080;20.040;2023-05-07T13:15:39;12.20;;;4.82;;
54557;SDS011;40452;50.080;20.040;2023-05-07T13:18:05;13.73;;;5.38;;
54557;SDS011;40452;50.080;20.040;2023-05-07T13:20:31;12.35;;;5.45;;
54557;SDS011;40452;50.080;20.040;2023-05-07T13:22:56;12.90;;;6.00;;
54557;SDS011;40452;50.080;20.040;2023-05-07T13:25:22;10.68;;;5.63;;
54557;SDS011;40452;50.080;20.040;2023-05-07T13:27:47;11.27;;;5.63;;
54557;SDS011;40452;50.080;20.040;2023-05-07T13:30:13;13.48;;;5.63;;
54557;SDS011;40452;50.080;20.040;2023-05-07T13:32:38;12.63;;;5.53;;
54557;SDS011;40452;50.080;20.040;2023-05-07T13:35:04;14.30;;;6.32;;
54557;SDS011;40452;50.080;20.040;2023-05-07T13:37:30;10.90;;;5.65;;
54557;SDS011;40452;50.080;20.040;2023-05-07T13:39:55;11.20;;;5.70;;
54557;SDS011;40452;50.080;20.040;2023-05-07T13:42:21;15.68;;;5.22;;
54557;SDS011;40452;50.080;20.040;2023-05-07T13:44:46;11.70;;;5.70;;
54557;SDS011;40452;50.080;20.040;2023-05-07T13:47:12;8.77;;;5.80;;
54557;SDS011;40452;50.080;20.040;2023-05-07T13:49:38;9.20;;;5.57;;
54557;SDS011;40452;50.080;20.040;2023-05-07T13:52:03;11.07;;;5.90;;
54557;SDS011;40452;50.080;20.040;2023-05-07T13:54:29;9.95;;;5.65;;
54557;SDS011;40452;50.080;20.040;2023-05-07T13:56:54;10.32;;;5.57;;
54557;SDS011;40452;50.080;20.040;2023-05-07T13:59:20;10.00;;;5.82;;
54557;SDS011;40452;50.080;20.040;2023-05-07T14:01:45;8.93;;;5.40;;
54557;SDS011;40452;50.080;20.040;2023-05-07T14:04:12;9.45;;;5.75;;
54557;SDS011;40452;50.080;20.040;2023-05-07T14:06:37;9.77;;;5.78;;
54557;SDS011;40452;50.080;20.040;2023-05-07T14:09:03;11.73;;;5.57;;
54557;SDS011;40452;50.080;20.040;2023-05-07T14:11:29;12.82;;;6.40;;
54557;SDS011;40452;50.080;20.040;2023-05-07T14:13:54;13.07;;;6.00;;
54557;SDS011;40452;50.080;20.040;2023-05-07T14:16:21;10.82;;;5.75;;
54557;SDS011;40452;50.080;20.040;2023-05-07T14:18:47;22.35;;;6.57;;
54557;SDS011;40452;50.080;20.040;2023-05-07T14:21:12;8.57;;;5.30;;
54557;SDS011;40452;50.080;20.040;2023-05-07T14:23:38;9.13;;;5.50;;
54557;SDS011;40452;50.080;20.040;2023-05-07T14:26:04;11.35;;;5.82;;
54557;SDS011;40452;50.080;20.040;2023-05-07T14:28:29;9.98;;;5.93;;
54557;SDS011;40452;50.080;20.040;2023-05-07T14:30:55;9.82;;;5.55;;
54557;SDS011;40452;50.080;20.040;2023-05-07T14:33:21;9.57;;;5.45;;
54557;SDS011;40452;50.080;20.040;2023-05-07T14:35:47;8.77;;;5.60;;
54557;SDS011;40452;50.080;20.040;2023-05-07T14:38:14;8.75;;;5.65;;
54557;SDS011;40452;50.080;20.040;2023-05-07T14:40:40;8.48;;;5.28;;
54557;SDS011;40452;50.080;20.040;2023-05-07T14:43:06;9.40;;;5.70;;
54557;SDS011;40452;50.080;20.040;2023-05-07T14:45:31;10.70;;;5.45;;
54557;SDS011;40452;50.080;20.040;2023-05-07T14:47:57;7.30;;;5.07;;
54557;SDS011;40452;50.080;20.040;2023-05-07T14:50:22;8.55;;;5.55;;
54557;SDS011;40452;50.080;20.040;2023-05-07T14:52:48;7.63;;;5.18;;
54557;SDS011;40452;50.080;20.040;2023-05-07T14:55:13;8.30;;;5.47;;
54557;SDS011;40452;50.080;20.040;2023-05-07T14:57:39;8.77;;;5.07;;
54557;SDS011;40452;50.080;20.040;2023-05-07T15:00:05;7.38;;;4.93;;
54557;SDS011;40452;50.080;20.040;2023-05-07T15:02:31;8.10;;;5.20;;
54557;SDS011;40452;50.080;20.040;2023-05-07T15:04:58;10.73;;;4.90;;
54557;SDS011;40452;50.080;20.040;2023-05-07T15:07:24;7.25;;;4.88;;
54557;SDS011;40452;50.080;20.040;2023-05-07T15:09:49;8.75;;;4.88;;
54557;SDS011;40452;50.080;20.040;2023-05-07T15:12:16;10.30;;;5.35;;
54557;SDS011;40452;50.080;20.040;2023-05-07T15:14:41;9.57;;;5.20;;
54557;SDS011;40452;50.080;20.040;2023-05-07T15:17:07;9.02;;;6.05;;
54557;SDS011;40452;50.080;20.040;2023-05-07T15:19:33;9.52;;;5.68;;
54557;SDS011;40452;50.080;20.040;2023-05-07T15:21:59;9.95;;;5.53;;
54557;SDS011;40452;50.080;20.040;2023-05-07T15:24:27;9.93;;;6.57;;
54557;SDS011;40452;50.080;20.040;2023-05-07T15:26:53;9.13;;;6.38;;
54557;SDS011;40452;50.080;20.040;2023-05-07T15:29:19;11.07;;;7.22;;
54557;SDS011;40452;50.080;20.040;2023-05-07T15:31:45;11.55;;;7.63;;
54557;SDS011;40452;50.080;20.040;2023-05-07T15:34:10;12.60;;;7.93;;
54557;SDS011;40452;50.080;20.040;2023-05-07T15:36:36;14.02;;;7.90;;
54557;SDS011;40452;50.080;20.040;2023-05-07T15:39:02;13.82;;;8.48;;
54557;SDS011;40452;50.080;20.040;2023-05-07T15:41:28;13.27;;;8.43;;
54557;SDS011;40452;50.080;20.040;2023-05-07T15:43:54;11.77;;;7.72;;
54557;SDS011;40452;50.080;20.040;2023-05-07T15:46:20;11.68;;;8.52;;
54557;SDS011;40452;50.080;20.040;2023-05-07T15:48:48;12.60;;;8.80;;
54557;SDS011;40452;50.080;20.040;2023-05-07T15:51:21;13.23;;;8.10;;
54557;SDS011;40452;50.080;20.040;2023-05-07T15:53:47;13.18;;;9.15;;
54557;SDS011;40452;50.080;20.040;2023-05-07T15:56:13;15.10;;;9.32;;
54557;SDS011;40452;50.080;20.040;2023-05-07T15:58:39;13.80;;;9.20;;
54557;SDS011;40452;50.080;20.040;2023-05-07T16:01:05;14.88;;;9.57;;
54557;SDS011;40452;50.080;20.040;2023-05-07T16:03:30;15.40;;;9.40;;
54557;SDS011;40452;50.080;20.040;2023-05-07T16:05:56;14.82;;;8.98;;
54557;SDS011;40452;50.080;20.040;2023-05-07T16:08:22;14.98;;;9.40;;
54557;SDS011;40452;50.080;20.040;2023-05-07T16:10:48;12.00;;;8.88;;
54557;SDS011;40452;50.080;20.040;2023-05-07T16:13:14;14.35;;;9.38;;
54557;SDS011;40452;50.080;20.040;2023-05-07T16:15:43;15.10;;;9.32;;
54557;SDS011;40452;50.080;20.040;2023-05-07T16:18:09;15.65;;;8.80;;
54557;SDS011;40452;50.080;20.040;2023-05-07T16:20:36;13.20;;;8.63;;
54557;SDS011;40452;50.080;20.040;2023-05-07T16:23:01;14.65;;;9.25;;
54557;SDS011;40452;50.080;20.040;2023-05-07T16:25:27;14.02;;;9.18;;
54557;SDS011;40452;50.080;20.040;2023-05-07T16:27:54;14.07;;;9.40;;
54557;SDS011;40452;50.080;20.040;2023-05-07T16:30:19;14.75;;;9.00;;
54557;SDS011;40452;50.080;20.040;2023-05-07T16:32:45;13.35;;;9.30;;
54557;SDS011;40452;50.080;20.040;2023-05-07T16:35:10;13.38;;;9.13;;
54557;SDS011;40452;50.080;20.040;2023-05-07T16:37:38;13.93;;;9.52;;
54557;SDS011;40452;50.080;20.040;2023-05-07T16:40:05;13.95;;;9.52;;
54557;SDS011;40452;50.080;20.040;2023-05-07T16:42:32;13.05;;;9.02;;
54557;SDS011;40452;50.080;20.040;2023-05-07T16:44:58;14.50;;;8.02;;
54557;SDS011;40452;50.080;20.040;2023-05-07T16:47:24;12.93;;;8.73;;
54557;SDS011;40452;50.080;20.040;2023-05-07T16:49:50;14.57;;;8.48;;
54557;SDS011;40452;50.080;20.040;2023-05-07T16:52:15;13.60;;;9.07;;
54557;SDS011;40452;50.080;20.040;2023-05-07T16:54:42;13.32;;;8.60;;
54557;SDS011;40452;50.080;20.040;2023-05-07T16:57:07;24.95;;;8.18;;
54557;SDS011;40452;50.080;20.040;2023-05-07T16:59:33;19.38;;;7.15;;
54557;SDS011;40452;50.080;20.040;2023-05-07T17:01:58;13.80;;;7.22;;
54557;SDS011;40452;50.080;20.040;2023-05-07T17:04:23;16.25;;;6.53;;
54557;SDS011;40452;50.080;20.040;2023-05-07T17:06:49;27.27;;;6.30;;
54557;SDS011;40452;50.080;20.040;2023-05-07T17:09:15;12.85;;;5.70;;
54557;SDS011;40452;50.080;20.040;2023-05-07T17:11:40;11.43;;;5.88;;
54557;SDS011;40452;50.080;20.040;2023-05-07T17:14:06;14.15;;;5.78;;
54557;SDS011;40452;50.080;20.040;2023-05-07T17:16:32;9.25;;;5.82;;
54557;SDS011;40452;50.080;20.040;2023-05-07T17:18:57;7.95;;;5.53;;
54557;SDS011;40452;50.080;20.040;2023-05-07T17:21:23;9.90;;;5.65;;
54557;SDS011;40452;50.080;20.040;2023-05-07T17:23:48;12.60;;;5.88;;
54557;SDS011;40452;50.080;20.040;2023-05-07T17:26:15;9.38;;;5.40;;
54557;SDS011;40452;50.080;20.040;2023-05-07T17:28:41;7.70;;;5.40;;
54557;SDS011;40452;50.080;20.040;2023-05-07T17:31:06;8.35;;;5.28;;
54557;SDS011;40452;50.080;20.040;2023-05-07T17:33:32;9.77;;;5.40;;
54557;SDS011;40452;50.080;20.040;2023-05-07T17:35:57;8.18;;;5.07;;
54557;SDS011;40452;50.080;20.040;2023-05-07T17:38:23;6.13;;;4.57;;
54557;SDS011;40452;50.080;20.040;2023-05-07T17:40:48;7.07;;;4.85;;
54557;SDS011;40452;50.080;20.040;2023-05-07T17:43:15;6.47;;;4.72;;
54557;SDS011;40452;50.080;20.040;2023-05-07T17:45:40;7.78;;;5.03;;
54557;SDS011;40452;50.080;20.040;2023-05-07T17:48:06;7.85;;;5.70;;
54557;SDS011;40452;50.080;20.040;2023-05-07T17:50:31;10.18;;;5.82;;
54557;SDS011;40452;50.080;20.040;2023-05-07T17:52:57;7.47;;;4.80;;
54557;SDS011;40452;50.080;20.040;2023-05-07T17:55:23;7.93;;;5.28;;
54557;SDS011;40452;50.080;20.040;2023-05-07T17:57:48;9.73;;;5.80;;
54557;SDS011;40452;50.080;20.040;2023-05-07T18:00:14;11.43;;;6.00;;
54557;SDS011;40452;50.080;20.040;2023-05-07T18:02:40;11.23;;;6.00;;
54557;SDS011;40452;50.080;20.040;2023-05-07T18:05:06;8.10;;;5.60;;
54557;SDS011;40452;50.080;20.040;2023-05-07T18:07:32;8.25;;;5.50;;
54557;SDS011;40452;50.080;20.040;2023-05-07T18:09:58;7.72;;;5.93;;
54557;SDS011;40452;50.080;20.040;2023-05-07T18:12:24;8.77;;;5.85;;
54557;SDS011;40452;50.080;20.040;2023-05-07T18:14:49;8.52;;;6.15;;
54557;SDS011;40452;50.080;20.040;2023-05-07T18:17:15;9.82;;;6.80;;
54557;SDS011;40452;50.080;20.040;2023-05-07T18:19:41;12.52;;;7.22;;
54557;SDS011;40452;50.080;20.040;2023-05-07T18:22:07;10.98;;;7.32;;
54557;SDS011;40452;50.080;20.040;2023-05-07T18:24:32;10.32;;;7.57;;
54557;SDS011;40452;50.080;20.040;2023-05-07T18:26:58;10.73;;;7.35;;
54557;SDS011;40452;50.080;20.040;2023-05-07T18:29:23;8.52;;;6.65;;
54557;SDS011;40452;50.080;20.040;2023-05-07T18:31:49;13.00;;;8.45;;
54557;SDS011;40452;50.080;20.040;2023-05-07T18:34:15;11.35;;;7.50;;
54557;SDS011;40452;50.080;20.040;2023-05-07T18:36:40;12.57;;;7.18;;
54557;SDS011;40452;50.080;20.040;2023-05-07T18:39:06;10.82;;;6.90;;
54557;SDS011;40452;50.080;20.040;2023-05-07T18:41:32;11.45;;;7.75;;
54557;SDS011;40452;50.080;20.040;2023-05-07T18:43:59;11.20;;;7.65;;
54557;SDS011;40452;50.080;20.040;2023-05-07T18:46:24;10.32;;;7.35;;
54557;SDS011;40452;50.080;20.040;2023-05-07T18:48:50;11.50;;;8.07;;
54557;SDS011;40452;50.080;20.040;2023-05-07T18:51:16;9.52;;;7.30;;
54557;SDS011;40452;50.080;20.040;2023-05-07T18:53:42;13.85;;;8.50;;
54557;SDS011;40452;50.080;20.040;2023-05-07T18:56:08;12.20;;;8.43;;
54557;SDS011;40452;50.080;20.040;2023-05-07T18:58:33;11.80;;;8.38;;
54557;SDS011;40452;50.080;20.040;2023-05-07T19:00:59;12.27;;;8.35;;
